createdAt,value
2023-04-23T00:05:28.224Z,54.70
2023-04-23T00:13:51.744Z,54.62
2023-04-23T00:22:17.116Z,54.43
2023-04-23T00:30:40.273Z,54.52
2023-04-23T00:39:03.489Z,54.56
2023-04-23T00:47:26.629Z,54.45
2023-04-23T00:55:49.733Z,54.46
2023-04-23T01:04:16.429Z,54.37
2023-04-23T01:12:39.727Z,54.32
2023-04-23T01:21:04.962Z,54.53
2023-04-23T01:29:29.436Z,54.62
2023-04-23T01:37:53.928Z,54.55
2023-04-23T01:46:16.896Z,54.55
2023-04-23T01:54:40.547Z,54.46
2023-04-23T02:03:04.095Z,54.68
2023-04-23T02:11:27.225Z,54.45
2023-04-23T02:19:50.551Z,54.41
2023-04-23T02:28:13.672Z,54.54
2023-04-23T02:36:38.392Z,54.60
2023-04-23T02:45:01.596Z,54.63
2023-04-23T02:53:24.764Z,54.59
2023-04-23T03:01:47.733Z,54.66
2023-04-23T03:10:11.115Z,54.42
2023-04-23T03:18:34.526Z,54.65
2023-04-23T03:26:58.168Z,54.62
2023-04-23T03:35:21.423Z,54.80
2023-04-23T03:43:45.536Z,54.58
2023-04-23T03:52:14.197Z,54.71
2023-04-23T04:00:38.414Z,54.72
2023-04-23T04:09:01.337Z,54.95
2023-04-23T04:17:25.352Z,55.45
2023-04-23T04:25:51.138Z,55.97
2023-04-23T04:34:15.009Z,56.42
2023-04-23T04:42:39.623Z,56.68
2023-04-23T04:51:02.658Z,56.45
2023-04-23T04:59:25.595Z,56.44
2023-04-23T05:07:48.635Z,56.61
2023-04-23T05:16:12.226Z,56.61
2023-04-23T05:24:35.321Z,56.75
2023-04-23T05:32:58.300Z,56.97
2023-04-23T05:41:21.602Z,57.04
2023-04-23T05:49:44.558Z,57.36
2023-04-23T05:58:07.695Z,57.48
2023-04-23T06:06:31.685Z,57.68
2023-04-23T06:14:54.899Z,57.94
2023-04-23T06:23:17.999Z,58.14
2023-04-23T06:31:42.026Z,58.47
2023-04-23T06:40:05.513Z,58.50
2023-04-23T06:48:28.445Z,58.64
2023-04-23T06:56:51.398Z,58.71
2023-04-23T07:05:15.213Z,58.75
2023-04-23T07:13:40.409Z,59.00
2023-04-23T07:22:04.022Z,59.35
2023-04-23T07:30:27.768Z,59.15
2023-04-23T07:38:51.224Z,59.29
2023-04-23T07:47:14.233Z,59.32
2023-04-23T07:55:37.528Z,59.37
2023-04-23T08:04:01.209Z,59.29
2023-04-23T08:12:24.438Z,59.50
2023-04-23T08:20:47.352Z,59.45
2023-04-23T08:29:11.527Z,59.52
2023-04-23T08:37:34.732Z,59.49
2023-04-23T08:46:07.180Z,59.52
2023-04-23T08:54:35.360Z,59.49
2023-04-23T09:02:58.652Z,59.40
2023-04-23T09:11:24.162Z,59.43
2023-04-23T09:19:47.180Z,59.39
2023-04-23T09:28:14.241Z,59.44
2023-04-23T09:36:37.703Z,59.33
2023-04-23T09:45:04.613Z,59.47
2023-04-23T09:53:29.164Z,59.42
2023-04-23T10:01:53.184Z,59.12
2023-04-23T10:10:16.987Z,59.19
2023-04-23T10:18:40.045Z,59.12
2023-04-23T10:27:04.973Z,59.12
2023-04-23T10:35:29.175Z,59.11
2023-04-23T10:43:53.665Z,59.06
2023-04-23T10:52:21.518Z,58.97
2023-04-23T11:00:46.962Z,58.89
2023-04-23T11:09:33.657Z,58.77
2023-04-23T11:17:59.903Z,58.68
2023-04-23T11:26:28.087Z,58.69
2023-04-23T11:34:53.637Z,58.55
2023-04-23T11:43:21.361Z,58.54
2023-04-23T11:51:45.586Z,58.45
2023-04-23T12:00:17.053Z,58.34
2023-04-23T12:08:43.034Z,58.42
2023-04-23T12:17:11.417Z,58.15
2023-04-23T12:25:35.646Z,58.22
2023-04-23T12:34:02.166Z,58.06
2023-04-23T12:42:26.172Z,58.16
2023-04-23T12:50:49.261Z,58.02
2023-04-23T12:59:12.309Z,57.90
2023-04-23T13:07:35.531Z,57.90
2023-04-23T13:15:58.984Z,57.73
2023-04-23T13:24:21.958Z,57.49
2023-04-23T13:32:44.938Z,57.39
2023-04-23T13:41:07.924Z,57.54
2023-04-23T13:49:30.940Z,57.31
2023-04-23T13:57:58.013Z,57.32
2023-04-23T14:06:20.920Z,57.11
2023-04-23T14:14:44.000Z,57.00
2023-04-23T14:23:22.193Z,57.03
2023-04-23T14:31:45.803Z,56.78
2023-04-23T14:40:09.629Z,56.67
2023-04-23T14:48:32.867Z,56.62
2023-04-23T14:56:56.962Z,56.70
2023-04-23T15:05:20.620Z,56.51
2023-04-23T15:14:26.374Z,56.34
2023-04-23T15:22:49.465Z,56.53
2023-04-23T15:31:12.582Z,56.08
2023-04-23T15:39:35.544Z,56.32
2023-04-23T15:47:58.506Z,55.89
2023-04-23T15:56:22.131Z,55.80
2023-04-23T16:04:46.346Z,55.82
2023-04-23T16:13:09.688Z,55.78
2023-04-23T16:21:32.938Z,55.53
2023-04-23T16:29:55.896Z,55.45
2023-04-23T16:38:19.017Z,55.51
2023-04-23T16:46:42.085Z,55.17
2023-04-23T16:55:05.931Z,55.06
2023-04-23T17:03:29.741Z,55.19
2023-04-23T17:11:53.159Z,54.80
2023-04-23T17:20:16.960Z,54.88
2023-04-23T17:28:42.949Z,54.44
2023-04-23T17:37:06.163Z,54.45
2023-04-23T17:45:29.855Z,54.35
2023-04-23T17:53:52.976Z,54.27
2023-04-23T18:02:16.488Z,54.07
2023-04-23T18:10:39.681Z,53.87
2023-04-23T18:19:03.262Z,53.71
2023-04-23T18:27:27.059Z,53.78
2023-04-23T18:35:52.565Z,53.62
2023-04-23T18:44:16.631Z,53.55
2023-04-23T18:52:39.765Z,53.37
2023-04-23T19:01:02.775Z,53.28
2023-04-23T19:09:26.848Z,53.19
2023-04-23T19:17:49.917Z,53.16
2023-04-23T19:26:13.752Z,53.12
2023-04-23T19:34:36.864Z,53.09
2023-04-23T19:42:59.826Z,52.93
2023-04-23T19:51:28.079Z,53.05
2023-04-23T19:59:51.482Z,52.93
2023-04-23T20:08:26.240Z,52.65
2023-04-23T20:16:49.584Z,52.72
2023-04-23T20:25:13.675Z,52.77
2023-04-23T20:33:37.895Z,52.58
2023-04-23T20:42:01.474Z,52.51
2023-04-23T20:50:24.702Z,52.59
2023-04-23T20:58:47.904Z,52.44
2023-04-23T21:07:10.971Z,52.31
2023-04-23T21:15:35.383Z,52.27
2023-04-23T21:24:01.173Z,52.24
2023-04-23T21:32:24.182Z,52.24
2023-04-23T21:40:47.425Z,52.11
2023-04-23T21:49:11.507Z,52.09
2023-04-23T21:57:35.315Z,52.19
2023-04-23T22:05:58.643Z,52.05
2023-04-23T22:14:21.818Z,51.93
2023-04-23T22:22:44.817Z,51.97
2023-04-23T22:31:07.917Z,51.94
2023-04-23T22:39:31.016Z,52.21
2023-04-23T22:47:54.441Z,52.17
2023-04-23T22:56:17.819Z,52.15
2023-04-23T23:04:41.171Z,52.20
2023-04-23T23:13:04.627Z,52.25
2023-04-23T23:21:27.824Z,52.15
2023-04-23T23:29:50.925Z,52.03
2023-04-23T23:38:14.319Z,52.13
2023-04-23T23:46:37.474Z,52.19
2023-04-23T23:55:00.848Z,51.94
